Time,TemperatureF,DewpointF,PressureIn,WindDirection,WindDirectionDegrees,WindSpeedMPH,WindSpeedGustMPH,Humidity,HourlyPrecipIn,Conditions,Clouds,dailyrainin,SoftwareType,DateUTC
2013-01-06 14:12:00,31.0,11.0,-100.00,WNW,293,6.0,6.0,43,-99.99,,,-99.99,,2013-01-06 21:12:00,
2013-01-06 14:22:00,31.0,11.0,-100.00,WNW,293,6.0,6.0,43,-99.99,,,-99.99,,2013-01-06 21:22:00,
2013-01-06 14:33:00,31.0,12.0,-100.00,SW,230,4.0,7.0,45,-99.99,,,-99.99,,2013-01-06 21:33:00,
2013-01-06 14:42:00,31.0,12.0,-100.00,SW,230,4.0,7.0,45,-99.99,,,-99.99,,2013-01-06 21:42:00,
2013-01-06 14:52:00,31.0,12.0,-100.00,East,95,3.0,5.0,43,-99.99,,,-99.99,,2013-01-06 21:52:00,
2013-01-06 15:02:00,31.0,12.0,-100.00,East,95,3.0,5.0,43,-99.99,,,-99.99,,2013-01-06 22:02:00,
2013-01-06 15:12:00,33.0,12.0,-100.00,East,100,2.0,4.0,40,-99.99,,,-99.99,,2013-01-06 22:12:00,
2013-01-06 15:22:00,33.0,10.0,-100.00,ESE,104,5.0,6.0,38,-99.99,,,-99.99,,2013-01-06 22:22:00,
2013-01-06 15:33:00,33.0,10.0,-100.00,ESE,104,5.0,6.0,38,-99.99,,,-99.99,,2013-01-06 22:33:00,
2013-01-06 15:42:00,33.0,13.0,-100.00,East,89,1.0,4.0,43,-99.99,,,-99.99,,2013-01-06 22:42:00,
2013-01-06 15:52:00,33.0,13.0,-100.00,East,89,1.0,4.0,43,-99.99,,,-99.99,,2013-01-06 22:52:00,
2013-01-06 16:02:00,34.0,10.0,-100.00,East,95,3.0,5.0,36,-99.99,,,-99.99,,2013-01-06 23:02:00,
2013-01-06 16:12:00,35.0,11.0,-100.00,SE,126,2.0,3.0,36,-99.99,,,-99.99,,2013-01-06 23:12:00,
2013-01-06 16:22:00,35.0,11.0,-100.00,SE,126,2.0,3.0,36,-99.99,,,-99.99,,2013-01-06 23:22:00,
2013-01-06 16:32:00,35.0,10.0,-100.00,WSW,239,3.0,4.0,34,-99.99,,,-99.99,,2013-01-06 23:32:00,
2013-01-06 16:42:00,36.0,10.0,-100.00,North,0,0.0,3.0,33,-99.99,,,-99.99,,2013-01-06 23:42:00,
2013-01-06 16:52:00,36.0,10.0,-100.00,North,0,0.0,3.0,33,-99.99,,,-99.99,,2013-01-06 23:52:00,
2013-01-06 17:02:00,36.0,10.0,-100.00,North,0,0.0,3.0,33,-99.99,,,-99.99,,2013-01-07 00:02:00,
2013-01-06 17:12:00,33.0,12.0,-100.00,NE,51,2.0,4.0,42,-99.99,,,-99.99,,2013-01-07 00:12:00,
2013-01-06 17:22:00,33.0,12.0,-100.00,NE,51,2.0,4.0,42,-99.99,,,-99.99,,2013-01-07 00:22:00,
2013-01-06 17:32:00,30.0,12.0,-100.00,ENE,65,3.0,5.0,46,-99.99,,,-99.99,,2013-01-07 00:32:00,
2013-01-06 17:42:00,30.0,12.0,-100.00,East,91,2.0,4.0,46,-99.99,,,-99.99,,2013-01-07 00:42:00,
2013-01-06 17:52:00,30.0,12.0,-100.00,East,91,2.0,4.0,46,-99.99,,,-99.99,,2013-01-07 00:52:00,
2013-01-06 18:02:00,29.0,9.0,-100.00,East,93,4.0,5.0,42,-99.99,,,-99.99,,2013-01-07 01:02:00,
2013-01-06 18:12:00,28.0,10.0,-100.00,SE,124,3.0,7.0,46,-99.99,,,-99.99,,2013-01-07 01:12:00,
2013-01-06 18:22:00,28.0,10.0,-100.00,SE,124,3.0,7.0,46,-99.99,,,-99.99,,2013-01-07 01:22:00,
2013-01-06 18:32:00,27.0,11.0,-100.00,ESE,115,1.0,5.0,50,-99.99,,,-99.99,,2013-01-07 01:32:00,
2013-01-06 18:42:00,25.0,10.0,-100.00,East,80,1.0,3.0,52,-99.99,,,-99.99,,2013-01-07 01:42:00,
2013-01-06 18:52:00,25.0,10.0,-100.00,East,80,1.0,3.0,52,-99.99,,,-99.99,,2013-01-07 01:52:00,
2013-01-06 19:02:00,24.0,10.0,-100.00,ESE,107,3.0,6.0,55,-99.99,,,-99.99,,2013-01-07 02:02:00,
2013-01-06 19:12:00,22.0,9.0,-100.00,North,0,1.0,6.0,57,-99.99,,,-99.99,,2013-01-07 02:12:00,
2013-01-06 19:22:00,22.0,9.0,-100.00,North,0,1.0,6.0,57,-99.99,,,-99.99,,2013-01-07 02:22:00,
2013-01-06 19:32:00,23.0,11.0,-100.00,North,3,1.0,1.0,59,-99.99,,,-99.99,,2013-01-07 02:32:00,
2013-01-06 19:42:00,22.0,10.0,-100.00,West,271,1.0,3.0,59,-99.99,,,-99.99,,2013-01-07 02:42:00,
2013-01-06 19:52:00,22.0,10.0,-100.00,West,271,1.0,3.0,59,-99.99,,,-99.99,,2013-01-07 02:52:00,
2013-01-06 20:02:00,20.0,9.0,-100.00,NE,38,2.0,2.0,62,-99.99,,,-99.99,,2013-01-07 03:02:00,
2013-01-06 20:12:00,20.0,10.0,-100.00,North,0,0.0,2.0,65,-99.99,,,-99.99,,2013-01-07 03:12:00,
2013-01-06 20:22:00,20.0,10.0,-100.00,North,0,0.0,2.0,65,-99.99,,,-99.99,,2013-01-07 03:22:00,
2013-01-06 20:32:00,19.0,10.0,-100.00,West,267,5.0,5.0,67,-99.99,,,-99.99,,2013-01-07 03:32:00,
2013-01-06 20:42:00,19.0,10.0,-100.00,WNW,282,5.0,6.0,68,-99.99,,,-99.99,,2013-01-07 03:42:00,
2013-01-06 20:52:00,19.0,10.0,-100.00,WNW,282,5.0,6.0,68,-99.99,,,-99.99,,2013-01-07 03:52:00,
2013-01-06 21:02:00,16.0,9.0,-100.00,East,91,0.0,2.0,72,-99.99,,,-99.99,,2013-01-07 04:02:00,
2013-01-06 21:12:00,17.0,10.0,-100.00,WSW,238,1.0,3.0,73,-99.99,,,-99.99,,2013-01-07 04:12:00,
2013-01-06 21:22:00,17.0,10.0,-100.00,WSW,238,1.0,3.0,73,-99.99,,,-99.99,,2013-01-07 04:22:00,
2013-01-06 21:32:00,15.0,8.0,-100.00,NE,53,0.0,1.0,74,-99.99,,,-99.99,,2013-01-07 04:32:00,
2013-01-06 21:42:00,14.0,7.0,-100.00,East,95,4.0,5.0,72,-99.99,,,-99.99,,2013-01-07 04:42:00,
2013-01-06 21:52:00,14.0,7.0,-100.00,East,95,4.0,5.0,72,-99.99,,,-99.99,,2013-01-07 04:52:00,
2013-01-06 22:02:00,13.0,7.0,-100.00,ENE,60,1.0,3.0,75,-99.99,,,-99.99,,2013-01-07 05:02:00,
2013-01-06 22:12:00,13.0,6.0,-100.00,ENE,77,4.0,4.0,72,-99.99,,,-99.99,,2013-01-07 05:12:00,
2013-01-06 22:22:00,13.0,6.0,-100.00,ENE,77,4.0,4.0,72,-99.99,,,-99.99,,2013-01-07 05:22:00,
2013-01-06 22:42:00,13.0,7.0,-100.00,WSW,255,4.0,5.0,76,-99.99,,,-99.99,,2013-01-07 05:42:00,
2013-01-06 22:52:00,8.0,1.0,-100.00,ENE,75,5.0,6.0,74,-99.99,,,-99.99,,2013-01-07 05:52:00,
2013-01-06 23:02:00,9.0,3.0,-100.00,East,93,4.0,6.0,77,-99.99,,,-99.99,,2013-01-07 06:02:00,
2013-01-06 23:12:00,9.0,2.0,-100.00,East,99,1.0,4.0,73,-99.99,,,-99.99,,2013-01-07 06:12:00,
2013-01-06 23:22:00,8.0,2.0,-100.00,East,99,0.0,2.0,77,-99.99,,,-99.99,,2013-01-07 06:22:00,
2013-01-06 23:32:00,11.0,5.0,-100.00,ESE,102,1.0,3.0,77,-99.99,,,-99.99,,2013-01-07 06:32:00,
2013-01-06 23:42:00,10.0,4.0,-100.00,SSW,202,1.0,3.0,76,-99.99,,,-99.99,,2013-01-07 06:42:00,
2013-01-06 23:52:00,10.0,4.0,-100.00,SSW,202,1.0,3.0,76,-99.99,,,-99.99,,2013-01-07 06:52:00,